메인 페이지
METAR-TAF:

METAR-TAF

공항 :

우수아이아, 아르헨티나

위도: 54-48S, 경도: 068-19W, 고도: 16m

현재 날씨관측

예보는 55분 전, 18:00시(UTC)에 발표되었습니다.
서남서28kt, 순간 최대 풍속 38kt
온도 10°C
습도 66%
기압 989 hPa
시정 10km 이상
고도 3000ft 상공 구름 보통
고도 3500ft 상공 구름 보통, 타워링 적운.
시계 내 소나기

METAR: SAWH 161800Z 25028G38KT 9999 VCSH SCT030 SCT035TCU 10/04 Q0989

시각: 15:55 (18:55 UTC)

예보

예보는 1 시간 55분 전, 17:00시(UTC)에 발표되었습니다.
예보 대상 시간: 16일 18시부터 17일 18시까지 (UTC)
15kt
시정 10km 이상
고도 2000ft 상공 구름 보통
고도 4500ft 상공 구름 많음
고도 9000ft 상공 흐림
소나기
전환 중
16일 23시부터 17일 01시까지 (UTC)
북서15kt
고도 2000ft 상공 구름 많음
약한비, 이슬비
전환 중
17일 09시부터 17일 11시까지 (UTC)
시정: 7000m
고도 2000ft 상공 구름 보통
고도 4500ft 상공 흐림

TAF: SAWH 161700Z 1618/1718 27015KT 9999 SHRA SCT020 BKN045 OVC090 TX15/1618Z TN04/1711Z BECMG 1623/1701 32015KT -RADZ BKN020 BECMG 1709/1711 7000 RA SCT020 OVC045

4,000개 이상의 공항 관측 자료 및 예보 (METAR 및 TAF 보고).

지도상에서 검색 가능한 기상관측소가 노란 점과 빨간 점으로 표시되어 있습니다.

기상관측소 명을 보려면 표시 위로 마우스를 이동하세요.

날씨 관측과 예보를 보려면 클릭하세요.

지도 변경 : 확대하려면 엑스 표시가 있는 녹색 버튼, 축소하려면 빼기 표시가 있는 녹색 버튼, 다음 페이지의 지도를 보려면 녹색 화살표를 클릭하세요.


METAR-TAF: